Tiempo atmosférico en la estación meteorológica de Alicante/Alacant Aeropuerto, Alacant/Alicante (43 m.)



Fecha
DESCASC
Temp. máxima en grados centígrados (hora)
DESCASC
Temp. mínima en grados centígrados (hora)
DESCASC
Temp. media en grados centígrados
DESCASC
Racha de viento máxima en m/sg (hora)
DESCASC
Velocidad máxima media en intervalos de 10 minutos(hora)
DESCASC
Precipitaciones diarias en mm
DESCASC
Precipitaciones de 00:00 a 06:00 en mm
DESCASC
Precipitaciones de 06:00 a 12:00 en mm
DESCASC
Precipitaciones de 12:00 a 18:00 en mm
DESCASC
Precipitaciones de 18:00 a 24:00 en mm
DESCASC

Gráficas

Temp. máximas Temp. mínimas Temp. medias Precipitaciones Rachas de viento máximas Velocidades máximas media en intervalos de 10 minutos

Datos horarios

Fecha y hora oficial Temperatura (ºC) Velocidad del viento (km/h) Dirección del viento Racha (km/h) Dirección de racha Precipitación (mm) Presión (hPa) Tendencia (hPa) Humedad (%)
2018-09-23 23:00:00 24.6 5 Oeste 9 Oeste 0 1017.3 0.3 65
2018-09-23 22:00:00 25 6 Oeste 8 Oeste 0 1017.2 0.2 66
2018-09-23 21:00:00 25.9 0 Calma 5 Sudeste 0 1017.2 0.1 67
2018-09-23 20:00:00 27.1 5 Este 13 Sudeste 0 1017 -0.2 63
2018-09-23 19:00:00 28.8 4 Sudeste 15 Sudeste 0 1017 -0.4 47
2018-09-23 18:00:00 29.6 8 Sudeste 21 Sur 0 1017.1 -0.7 45
2018-09-23 17:00:00 30.3 14 Sur 22 Sur 0 1017.2 -1.5 43
2018-09-23 16:00:00 31.1 15 Sur 24 Sur 0 1017.4 -1.6 33
2018-09-23 15:00:00 32.6 7 Sur 18 Sur 0 1017.8 -1.5 32
2018-09-23 14:00:00 32 6 Sur 15 Este 0 1018.7 -0.5 31
2018-09-23 13:00:00 30.5 7 Sur 15 Este 0 1019 0.2 43
2018-09-23 12:00:00 29.9 6 Sur 17 Sudeste 0 1019.3 1 50
2018-09-23 11:00:00 28.2 3 Nordeste 8 Nordeste 0 1019.2 1 55
2018-09-23 10:00:00 26.3 2 Sudeste 13 Norte 0 1018.8 1 64
2018-09-23 09:00:00 23.1 0 Calma 4 Noroeste 0 1018.3 0.5 73
2018-09-23 08:00:00 20.6 2 Norte 5 Norte 0 1018.2 0.7 81
2018-09-23 07:00:00 21.1 2 Noroeste 11 Oeste 0 1017.8 -0.1 80
2018-09-23 06:00:00 21.1 6 Oeste 9 Noroeste 0 1017.8 -0.6 82
2018-09-23 05:00:00 21.8 5 Oeste 11 Noroeste 0 1017.5 -1.1 81
2018-09-23 04:00:00 21.7 7 Noroeste -- -- 0 1017.9 -1 88
2018-09-23 03:00:00 22.7 4 Oeste -- -- 0 1018.4 -0.3 88
2018-09-23 02:00:00 22.8 4 Oeste 11 Oeste 0 1018.6 -0.1 88
2018-09-23 01:00:00 22.8 8 Oeste 11 Oeste 0 1018.9 0.3 87
2018-09-23 00:00:00 23.8 8 Oeste -- -- 0 1018.7 0.5 84
2018-09-22 23:00:00 23.9 3 Sudoeste 4 Oeste 0 1018.7 0.7 83
2018-09-22 22:00:00 24.8 3 Oeste 5 Oeste 0 1018.6 1 79
2018-09-22 21:00:00 25.4 0 Calma 9 Sur 0 1018.2 0.6 78
2018-09-22 20:00:00 26.1 5 Sur 13 Sur 0 1018 0.1 73
2018-09-22 19:00:00 27.4 6 Sur 17 Sur 0 1017.6 -0.6 64
2018-09-22 18:00:00 28.5 10 Sur 22 Sur 0 1017.6 -0.9 55
2018-09-22 17:00:00 29.4 13 Sur 21 Sur 0 1017.9 -1.1 48
2018-09-22 16:00:00 29.6 13 Sur 24 Sudeste 0 1018.2 -1.1 50
2018-09-22 15:00:00 29.8 13 Sur 22 Sur 0 1018.5 -0.9 54
2018-09-22 14:00:00 29.9 11 Sur 21 Sudeste 0 1019 -0.3 48
2018-09-22 13:00:00 29.6 8 Sur 17 Sur 0 1019.3 0.6 55
2018-09-22 12:00:00 28.5 6 Sur 13 Sur 0 1019.4 1.3 59
2018-09-22 11:00:00 27.3 4 Sudeste 11 Sudeste 0 1019.3 1.6 71
2018-09-22 10:00:00 25.9 3 Este 9 Este 0 1018.7 1.5 79
2018-09-22 09:00:00 23 5 Noroeste 13 Norte 0 1018.1 1.7 91
2018-09-22 08:00:00 21.6 9 Norte 15 Norte 0 1017.7 1.5 94
2018-09-22 07:00:00 21.9 4 Norte -- -- 0 1017.2 1 93
2018-09-22 06:00:00 21.8 4 Noroeste 5 Oeste 0 1016.4 0.1 93
2018-09-22 05:00:00 22.1 3 Oeste 5 Oeste 0 1016.2 -0.2 93
2018-09-22 04:00:00 22.4 0 Calma -- -- 0 1016.2 -0.3 92
2018-09-22 03:00:00 22.7 3 Noroeste 8 Norte 0 1016.3 0 90
2018-09-22 02:00:00 23.2 0 Calma 8 Norte 0 1016.4 0.6 89
2018-09-22 01:00:00 23.8 0 Calma 9 Norte 0 1016.5 1 86
2018-09-22 00:00:00 25.1 2 Norte 13 Norte 0 1016.3 1.7 81
2018-09-21 23:00:00 25.5 5 Norte 9 Norte 0 1015.8 1.7 79
2018-09-21 22:00:00 25.4 3 Este 4 Sudeste 0 1015.5 1.9 81
2018-09-21 21:00:00 25.5 0 Calma 9 Sur 0 1014.6 1.4 81
2018-09-21 20:00:00 26.3 3 Sur 18 Sudeste 0 1014.1 0.8 77
2018-09-21 19:00:00 27.8 11 Sur 22 Sur 0 1013.6 0.2 68
2018-09-21 18:00:00 28.9 13 Sur 22 Sur 0 1013.2 -0.6 64
2018-09-21 17:00:00 29.6 14 Sur 22 Sur 0 1013.3 -1 60
2018-09-21 16:00:00 29.9 13 Sur 24 Sur 0 1013.4 -1.3 58
2018-09-21 15:00:00 29.8 13 Sur 24 Sur 0 1013.8 -1.1 59
2018-09-21 14:00:00 30.1 13 Sur 26 Sudoeste 0 1014.3 -0.6 57
2018-09-21 13:00:00 29.4 12 Sur 22 Sur 0 1014.7 0.1 56
2018-09-21 12:00:00 27.8 12 Sudoeste 18 Sudoeste 0 1014.9 0.5 58
2018-09-21 11:00:00 26.1 12 Sudoeste 17 Sudoeste 0 1014.9 1 66
2018-09-21 10:00:00 24.7 10 Sudoeste 13 Sudoeste 0 1014.6 1 70
2018-09-21 09:00:00 21.7 9 Oeste 15 Oeste 0 1014.4 1.3 80
2018-09-21 08:00:00 19.9 8 Oeste 13 Sudoeste 0 1013.9 0.7 86
2018-09-21 07:00:00 20.4 8 Oeste 9 Oeste 0 1013.6 0.1 84
2018-09-21 06:00:00 21 5 Oeste 9 Noroeste 0 1013.1 -0.8 81
2018-09-21 05:00:00 21.1 4 Noroeste 11 Noroeste 0 1013.2 -1.2 81
2018-09-21 04:00:00 21.2 8 Noroeste 9 Oeste 0 1013.5 -1.1 82
2018-09-21 03:00:00 21.6 7 Oeste 9 Noroeste 0 1013.9 -0.9 83
2018-09-21 02:00:00 21.6 8 Oeste 9 Oeste 0 1014.4 -0.5 86
2018-09-21 01:00:00 22.5 6 Oeste 9 Oeste 0 1014.6 -0.2 84
2018-09-21 00:00:00 23.6 8 Oeste 9 Oeste 0 1014.8 0.5 81
2018-09-20 23:00:00 24.4 7 Oeste 9 Oeste 0 1014.9 0.6 77
2018-09-20 22:00:00 24.8 4 Oeste 5 Oeste 0 1014.8 0.5 74
2018-09-20 21:00:00 24.8 3 Sur 8 Sur 0 1014.3 0 74
2018-09-20 20:00:00 26.1 7 Sudeste 15 Este 0 1014.3 -0.4 67
2018-09-20 19:00:00 27.6 8 Sudeste 21 Este 0 1014.3 -0.9 56
2018-09-20 18:00:00 28.8 12 Sudeste 22 Sudeste 0 1014.3 -1.3 50
2018-09-20 17:00:00 29.4 11 Sudeste 22 Sudeste 0 1014.7 -1.4 47
2018-09-20 16:00:00 29.7 13 Sudeste 22 Sudoeste 0 1015.2 -1.5 49
2018-09-20 15:00:00 29.8 10 Sur 18 Sur 0 1015.6 -1.3 52
2018-09-20 14:00:00 29.6 9 Sudoeste 22 Sudoeste 0 1016.1 -1 53
2018-09-20 13:00:00 28.2 8 Sudoeste 21 Sudoeste 0 1016.7 -0.2 59
2018-09-20 12:00:00 27.1 8 Sudoeste 17 Sudoeste 0 1016.9 0.3 65
2018-09-20 11:00:00 26.5 8 Oeste 15 Sur 0 1017.1 0.8 69
2018-09-20 10:00:00 24.7 9 Oeste 17 Noroeste 0 1016.9 0.8 74
2018-09-20 09:00:00 22.3 10 Noroeste 17 Norte 0 1016.6 0.5 82
2018-09-20 08:00:00 21.6 10 Noroeste 13 Noroeste 0 1016.3 0 85
2018-09-20 07:00:00 21.7 8 Oeste 11 Noroeste 0 1016.1 -0.5 87
2018-09-20 06:00:00 22.7 9 Noroeste 13 Noroeste 0 1016.1 -0.9 85
2018-09-20 05:00:00 22.9 6 Noroeste 9 Noroeste 0 1016.3 -0.9 90
2018-09-20 04:00:00 23.1 9 Noroeste 11 Noroeste 0 1016.6 -0.8 89
2018-09-20 03:00:00 23.5 6 Noroeste 9 Noroeste 0 1017 -0.7 88
2018-09-20 02:00:00 23.6 8 Oeste 9 Oeste 0 1017.2 -0.5 86
2018-09-20 01:00:00 24.4 0 Calma 5 Oeste 0 1017.4 0.1 84
2018-09-20 00:00:00 24.9 0 Calma 8 Este 0 1017.7 1.3 82
2018-09-19 23:00:00 24.6 3 Sudeste 13 Sudeste 0 1017.7 1.8 83
2018-09-19 22:00:00 25.1 8 Este 18 Este 0 1017.3 1.5 80
2018-09-19 21:00:00 25.6 11 Este 17 Este 0 1016.4 0.5 79
2018-09-19 20:00:00 25.9 10 Este 17 Este 0 1015.9 -0.1 78
2018-09-19 19:00:00 27 11 Este 17 Sur 0 1015.8 -0.2 71
2018-09-19 18:00:00 26.9 13 Este 22 Sudeste 0 1015.9 -0.3 70
2018-09-19 17:00:00 28.4 15 Sudeste 26 Este 0 1016 -0.6 60
2018-09-19 16:00:00 28.9 13 Este 22 Sudeste 0 1016 -0.9 53
2018-09-19 15:00:00 29.2 13 Este 22 Este 0 1016.2 -0.7 49
2018-09-19 14:00:00 28.9 11 Este 21 Sudeste 0 1016.6 -0.1 57
2018-09-19 13:00:00 28.7 6 Este 21 Este 0 1016.9 1.1 56
2018-09-19 12:00:00 27 10 Este 21 Sudeste 0 1016.9 1.5 63
2018-09-19 11:00:00 27.1 5 Sudeste 13 Sudeste 0 1016.7 2 62
2018-09-19 10:00:00 25.3 2 Este 9 Norte 0 1015.8 1.7 66
2018-09-19 09:00:00 22.7 6 Oeste 28 Noroeste 0 1015.4 1.2 76
2018-09-19 08:00:00 21.5 13 Oeste 17 Noroeste 0 1014.7 0.6 81
2018-09-19 07:00:00 21.7 12 Oeste 18 Oeste 0 1014.1 -0.1 81
2018-09-19 06:00:00 21.7 14 Oeste 21 Oeste 0 1014.2 -0.2 81
2018-09-19 05:00:00 22 13 Noroeste 18 Noroeste 0 1014.1 -0.9 81
2018-09-19 04:00:00 22.5 13 Noroeste 18 Noroeste 0 1014.2 -0.4 77
2018-09-19 03:00:00 22.6 5 Oeste 13 Oeste 0 1014.4 -0.3 79
2018-09-19 02:00:00 23.5 8 Oeste 13 Oeste 0 1015 0.8 79
2018-09-19 01:00:00 23.5 5 Sudeste 11 Noroeste 0 1014.6 0.4 82
2018-09-19 00:00:00 24 9 Noroeste 18 Noroeste 0 1014.7 1.4 81
2018-09-18 23:00:00 24.8 4 Oeste 9 Norte 0 1014.2 1.4 79
2018-09-18 22:00:00 24.9 8 Nordeste 18 Nordeste 0 1014.2 1.9 80
2018-09-18 21:00:00 24.9 7 Nordeste 21 Este 0 1013.3 0.9 82
2018-09-18 20:00:00 25.1 13 Este 22 Este 0 1012.8 0.9 81
2018-09-18 19:00:00 25.6 14 Este 22 Este 0 1012.3 0.5 77
2018-09-18 18:00:00 26.5 14 Este 32 Este 0 1012.4 0.6 71
2018-09-18 17:00:00 27.3 24 Este 32 Este 0 1011.9 -0.4 68
2018-09-18 16:00:00 28.3 19 Este 30 Este 0 1011.8 -0.9 62
2018-09-18 15:00:00 28.2 17 Este 28 Este 0 1011.8 -1.1 64
2018-09-18 14:00:00 28.3 14 Este 26 Este 0 1012.3 -0.7 64
2018-09-18 13:00:00 27.9 17 Este 24 Este 0 1012.7 0.2 65
2018-09-18 12:00:00 27.9 13 Este 18 Este 0 1012.9 0.9 62
2018-09-18 11:00:00 26.9 4 Este 17 Nordeste 0 1013 1.6 66
2018-09-18 10:00:00 25.7 7 Norte 17 Norte 0 1012.5 1.3 73
2018-09-18 09:00:00 23.5 13 Noroeste 18 Norte 0 1012 0.9 83
2018-09-18 08:00:00 22.7 11 Noroeste 13 Noroeste 0 1011.4 0.4 86
2018-09-18 07:00:00 22.7 8 Noroeste 11 Noroeste 0 1011.2 -0.1 86
2018-09-18 06:00:00 22.9 5 Noroeste 11 Norte 0 1011.1 -0.6 87
2018-09-18 05:00:00 22.7 8 Norte 13 Norte 0 1011 -0.8 89
2018-09-18 04:00:00 23.6 10 Norte 13 Norte 0 1011.3 -1 87
2018-09-18 03:00:00 23.7 8 Norte 13 Norte 0 1011.7 -0.8 89
2018-09-18 02:00:00 23.7 5 Norte 11 Nordeste 0 1011.8 -0.6 89
2018-09-18 01:00:00 24.2 3 Norte 13 Norte 0 1012.3 -0.3 86
2018-09-18 00:00:00 24.4 7 Nordeste 18 Este 0 1012.5 0 85
2018-09-17 23:00:00 25.2 15 Este 28 Este 0 1012.4 0.2 83
2018-09-17 22:00:00 25.2 19 Este 30 Este 0 1012.6 0.3 83
2018-09-17 21:00:00 25.5 18 Nordeste 30 Nordeste 0 1012.5 0.3 84
2018-09-17 20:00:00 25.7 19 Este 32 Este 0 1012.2 -0.8 83
2018-09-17 19:00:00 26.2 22 Nordeste 30 Este 0 1012.3 -0.7 79
2018-09-17 18:00:00 27 23 Este 35 Este 0 1012.2 -1.9 73
2018-09-17 17:00:00 27.9 23 Este 33 Este 0 1013 -1.2 67
2018-09-17 16:00:00 28.4 25 Este 37 Este 0 1013 -2.2 63
2018-09-17 15:00:00 28.3 23 Este 35 Este 0 1014.1 -1.5 60
2018-09-17 14:00:00 28.7 23 Este 32 Este 0 1014.2 -1.4 55
2018-09-17 13:00:00 28.4 13 Este 26 Este 0 1015.2 0.3 55
2018-09-17 12:00:00 27.5 12 Este 22 Este 0 1015.6 1.2 59
2018-09-17 11:00:00 25.6 0 Calma 17 Noroeste 0 1015.6 1.2 66
2018-09-17 10:00:00 23.3 12 Noroeste 18 Noroeste 0 1014.9 0.2 80
2018-09-17 09:00:00 23 7 Norte 22 Norte 0 1014.4 -0.2 79
2018-09-17 08:00:00 22.5 5 Norte 18 Norte 0 1014.4 -0.4 82
2018-09-17 07:00:00 22.4 12 Noroeste 17 Noroeste 0 1014.7 -0.5 85
2018-09-17 06:00:00 22.7 12 Noroeste 17 Noroeste 0 1014.6 -1 83
2018-09-17 05:00:00 23.1 7 Noroeste 13 Noroeste 0 1014.8 -1 83
2018-09-17 04:00:00 22.7 6 Noroeste 11 Noroeste 0 1015.2 -1.2 89
2018-09-17 03:00:00 23.5 7 Norte 18 Este 0 1015.6 -1 85
2018-09-17 02:00:00 24.1 12 Nordeste 24 Este 0 1015.8 0.1 84
2018-09-17 01:00:00 24.5 15 Este 26 Norte 0 1016.4 -0.2 83
2018-09-17 00:00:00 24.6 14 Este 21 Norte 0 1016.6 1.1 84
2018-09-16 23:00:00 24.2 14 Nordeste 21 Nordeste 0 1015.7 0.4 86
2018-09-16 22:00:00 24.3 4 Sur 8 Este 0 1016.6 1.5 84
2018-09-16 21:00:00 25.1 7 Este 13 Nordeste 0 1015.5 0.4 80
2018-09-16 20:00:00 25.9 9 Este 17 Este 0 1015.3 0 73
2018-09-16 19:00:00 26.9 13 Este 22 Este 0 1015.1 -0.7 69
2018-09-16 18:00:00 27.2 13 Este 22 Este 0 1015.1 -1 67
2018-09-16 17:00:00 27.1 15 Este 28 Este 0 1015.3 -1.2 65
2018-09-16 16:00:00 27.3 18 Este 32 Este 0 1015.8 -0.8 60
2018-09-16 15:00:00 27.1 14 Este 24 Este 0 1016.1 -0.2 64
2018-09-16 14:00:00 28.6 12 Sudeste 26 Sudeste 0 1016.5 0 58
2018-09-16 13:00:00 28.6 17 Sudeste 24 Sudeste 0 1016.6 0.1 56
2018-09-16 12:00:00 27.5 5 Oeste 13 Norte 0 1016.3 -0.1 54
2018-09-16 11:00:00 25.3 7 Noroeste 15 Norte 0 1016.5 0.7 63
2018-09-16 10:00:00 23.8 6 Oeste 15 Oeste 0 1016.5 0.9 71
2018-09-16 09:00:00 22.2 10 Oeste 21 Noroeste 0 1016.4 1.1 77
2018-09-16 08:00:00 21.3 8 Noroeste 17 Noroeste 0 1015.8 0.6 78
2018-09-16 07:00:00 21.6 5 Noroeste 11 Noroeste 0 1015.6 -0.3 78
2018-09-16 06:00:00 21.2 3 Noroeste 11 Noroeste 0 1015.3 -1.5 80
2018-09-16 05:00:00 21.6 10 Oeste 22 Noroeste 0 1015.2 -1.5 78
2018-09-16 04:00:00 21 12 Noroeste 17 Noroeste 0 1015.9 -0.8 83
2018-09-16 03:00:00 21.1 9 Oeste 11 Noroeste 0 1016.8 0.2 83
2018-09-16 02:00:00 21.5 5 Oeste 17 Noroeste 0 1016.7 0 82
2018-09-16 01:00:00 21.7 10 Noroeste 17 Noroeste 0 1016.7 0.5 82
2018-09-16 00:00:00 22.1 13 Oeste 18 Oeste 0 1016.6 1 81
2018-09-15 23:00:00 22.8 9 Oeste 15 Oeste 0 1016.7 1.3 79
2018-09-15 22:00:00 23 12 Oeste 15 Oeste 0 1016.2 1.5 85
2018-09-15 21:00:00 23.7 6 Sudoeste 13 Sudeste 0 1015.6 1.1 81
2018-09-15 20:00:00 24.9 10 Sudeste 15 Este 0 1015.4 0.4 75
2018-09-15 19:00:00 27.2 10 Norte 21 Norte 0 1014.7 -1.1 58
2018-09-15 18:00:00 27.1 12 Norte 24 Nordeste 0 1014.5 -1.5 60
2018-09-15 17:00:00 25.7 15 Norte 33 Noroeste 0 1015 -1.3 71
2018-09-15 16:00:00 23.8 17 Noroeste 28 Noroeste 0 1015.8 -1.1 85
2018-09-15 15:00:00 23.2 9 Norte 18 Nordeste 0 1016 -0.6 84
2018-09-15 14:00:00 22.1 14 Nordeste 26 Este 2.2 1016.3 0.6 95
2018-09-15 13:00:00 20.9 21 Este 37 Este 7.3 1016.9 1.4 93
2018-09-15 12:00:00 22.6 22 Este 33 Este 1.6 1016.6 1.6 92
2018-09-15 11:00:00 23.4 14 Nordeste 22 Nordeste 0 1015.7 1.1 83
2018-09-15 10:00:00 22.1 12 Norte 24 Norte 0.2 1015.5 1.7 93
2018-09-15 09:00:00 21.4 13 Norte 21 Norte 3.9 1015 1.4 92
2018-09-15 08:00:00 21.2 9 Norte 17 Norte 2 1014.6 1 90
2018-09-15 07:00:00 20.9 15 Norte 24 Norte 3.1 1013.8 -0.3 89
2018-09-15 06:00:00 21.4 12 Norte 18 Nordeste 0.9 1013.6 -1.2 92
2018-09-15 05:00:00 21.8 13 Nordeste 26 Nordeste 2.4 1013.6 -1.7 92
2018-09-15 04:00:00 21.6 15 Nordeste 33 Este 8 1014.1 -1.1 88
2018-09-15 03:00:00 24.2 15 Norte 24 Norte 0 1014.8 -0.2 79
2018-09-15 02:00:00 24.9 10 Nordeste 22 Nordeste 0 1015.3 0.3 79
2018-09-15 01:00:00 25.1 18 Este 26 Este 0 1015.2 0.6 76
2018-09-15 00:00:00 25 16 Este 28 Este 0 1015 1.1 76
2018-09-14 23:00:00 25.2 15 Este 26 Este 0 1015 1.6 76
2018-09-14 22:00:00 25.2 15 Este 24 Este 0 1014.6 1 75
2018-09-14 21:00:00 25.2 16 Este 26 Este 0 1013.9 -0.2 74
2018-09-14 20:00:00 25.6 16 Nordeste 26 Este 0 1013.4 -0.9 70
2018-09-14 19:00:00 26.1 17 Este 28 Este 0 1013.6 -0.8 66
2018-09-14 18:00:00 26.5 17 Este 26 Este 0 1014.1 -0.8 66
2018-09-14 17:00:00 27.5 19 Este 28 Este 0 1014.3 -1.1 61
2018-09-14 16:00:00 27.6 18 Este 32 Este 0 1014.4 -1.3 57
2018-09-14 15:00:00 28.8 18 Este 35 Este 0 1014.9 -0.9 54
2018-09-14 14:00:00 28 21 Este 32 Este 0 1015.4 -0.1 64
2018-09-14 13:00:00 27.5 17 Este 26 Este 0 1015.7 0.7 66
2018-09-14 12:00:00 27.2 13 Este 22 Este 0 1015.8 1.3 66
2018-09-14 11:00:00 26.9 12 Este 18 Este 0 1015.5 1.1 63
2018-09-14 10:00:00 26.2 3 Este 15 Norte 0 1015 0.9 72
2018-09-14 09:00:00 23 5 Noroeste 11 Noroeste 0 1014.5 0.7 79
2018-09-14 08:00:00 20.9 3 Oeste 9 Noroeste 0 1014.4 0.5 86
2018-09-14 07:00:00 21.5 0 Calma 13 Noroeste 0 1014.1 -0.1 84
2018-09-14 06:00:00 21 8 Noroeste 9 Noroeste 0 1013.8 -0.7 87
2018-09-14 05:00:00 21.2 7 Oeste 11 Oeste 0 1013.9 -0.9 86
2018-09-14 04:00:00 21.7 6 Noroeste 9 Oeste 0 1014.2 -0.7 86
2018-09-14 03:00:00 22.6 4 Noroeste 8 Norte 0 1014.5 -0.2 83
2018-09-14 02:00:00 23 4 Norte 9 Norte 0 1014.8 0 81
2018-09-14 01:00:00 23.6 4 Oeste 11 Norte 0 1014.9 0.2 79
2018-09-14 00:00:00 24.1 9 Noroeste 15 Noroeste 0 1014.7 0.4 78
2018-09-13 23:00:00 24.2 6 Noroeste 11 Nordeste 0 1014.8 0.7 77
2018-09-13 22:00:00 25.2 7 Nordeste 11 Nordeste 0 1014.7 0.5 73
2018-09-13 21:00:00 25.3 10 Este 18 Este 0 1014.3 0 75
2018-09-13 20:00:00 26.1 12 Este 21 Este 0 1014.1 -0.1 71
2018-09-13 19:00:00 27 12 Este 24 Este 0 1014.2 -0.2 68
2018-09-13 18:00:00 27.4 17 Este 30 Este 0 1014.3 -0.5 68
2018-09-13 17:00:00 28 16 Sudeste 30 Este 0 1014.2 -0.9 62
2018-09-13 16:00:00 29.2 15 Este 30 Este 0 1014.4 -1.1 54
2018-09-13 15:00:00 29.4 17 Este 30 Este 0 1014.8 -1 53
2018-09-13 14:00:00 29.6 17 Este 28 Norte 0 1015.1 -0.3 50
2018-09-13 13:00:00 29.5 13 Este 24 Norte 0 1015.5 0.6 51
2018-09-13 12:00:00 28.2 13 Este 21 Sudeste 0 1015.8 1.3 64
2018-09-13 11:00:00 27.8 10 Este 21 Este 0 1015.4 1.4 65
2018-09-13 10:00:00 27 12 Nordeste 21 Norte 0 1014.9 1.1 67
2018-09-13 09:00:00 24.3 7 Norte 15 Norte 0 1014.5 0.8 71
2018-09-13 08:00:00 21.4 4 Noroeste 8 Oeste 0 1014 0.3 81
2018-09-13 07:00:00 22.1 3 Este 11 Oeste 0 1013.8 -0.3 77
2018-09-13 06:00:00 22.2 12 Oeste 17 Oeste 0 1013.7 -1.1 80
2018-09-13 05:00:00 22.7 8 Sudoeste 17 Oeste 0 1013.7 -1.9 75
2018-09-13 04:00:00 22.1 6 Oeste 11 Oeste 0 1014.1 -2 82
2018-09-13 03:00:00 22.6 9 Oeste 13 Oeste 0 1014.8 -1.2 84
2018-09-13 02:00:00 23.3 5 Oeste 5 Oeste 0 1015.6 -0.7 84
2018-09-13 01:00:00 23.7 4 Sudoeste 9 Norte 0 1016.1 -0.3 83
2018-09-13 00:00:00 24.5 7 Noroeste 15 Norte 0 1016 0 84
2018-09-12 23:00:00 24.4 7 Sur 9 Sur 0 1016.3 0.3 82
2018-09-12 22:00:00 25.7 0 Calma 13 Nordeste 0 1016.4 0.1 80
2018-09-12 21:00:00 26.2 0 Calma 8 Oeste 0 1016 -0.6 70
2018-09-12 20:00:00 26.6 5 Sur 18 Sudeste 0 1016 -0.5 72
2018-09-12 19:00:00 26.8 10 Sudeste 26 Este 0 1016.3 -0.7 76
2018-09-12 18:00:00 27.4 16 Este 26 Este 0 1016.6 -0.9 73
2018-09-12 17:00:00 29 13 Este 24 Este 0 1016.5 -1.8 64
2018-09-12 16:00:00 28.6 15 Este 24 Este 0 1017 -2.1 64
2018-09-12 15:00:00 28.2 15 Este 26 Este 0 1017.5 -1.5 63
2018-09-12 14:00:00 29.1 15 Este 30 Este 0 1018.3 -0.4 58
2018-09-12 13:00:00 29.4 8 Este 18 Sudeste 0 1019.1 0.7 55
2018-09-12 12:00:00 29.1 9 Sudeste 17 Sudeste 0 1019 0.6 54
2018-09-12 11:00:00 26.8 4 Norte 13 Nordeste 0 1018.7 0.9 60
2018-09-12 10:00:00 25.1 10 Noroeste 15 Norte 0 1018.4 1 66
2018-09-12 09:00:00 23.8 8 Noroeste 15 Noroeste 0 1018.4 1.2 72
2018-09-12 08:00:00 23.5 8 Oeste 13 Noroeste 0 1017.8 1 74
2018-09-12 07:00:00 23.5 11 Oeste 15 Oeste 0 1017.4 0.4 75
2018-09-12 06:00:00 23.6 11 Oeste 17 Oeste 0 1017.2 -0.6 75
2018-09-12 05:00:00 23.9 12 Noroeste 24 Noroeste 0 1016.8 -1.4 74
2018-09-12 04:00:00 24.1 16 Noroeste 21 Noroeste 0 1017 -1.3 75
2018-09-12 03:00:00 24.9 10 Nordeste 32 Nordeste 0 1017.8 0 76
2018-09-12 02:00:00 25.5 24 Este 39 Este 0 1018.2 0.6 74
2018-09-12 01:00:00 25.5 28 Este 41 Este 0 1018.3 1.2 78
2018-09-12 00:00:00 25.6 30 Este 42 Este 0 1017.8 1.3 77
2018-09-11 23:00:00 25.7 29 Este 45 Este 0 1017.6 1.6 76
2018-09-11 22:00:00 26.2 28 Este 39 Este 0 1017.1 1.1 74
2018-09-11 21:00:00 26.4 18 Nordeste 35 Este 0 1016.5 0.6 75
2018-09-11 20:00:00 26.5 27 Este 41 Este 0 1016 -0.9 77
2018-09-11 19:00:00 27.9 24 Este 37 Este 0 1016 -1.3 67
2018-09-11 18:00:00 28.3 27 Este 45 Este 0 1015.9 -1.6 65
2018-09-11 17:00:00 28.4 33 Este 50 Este 0 1016.9 -1.4 66
2018-09-11 16:00:00 28.4 36 Nordeste 52 Este 0 1017.3 -0.9 64
2018-09-11 15:00:00 29.1 36 Este 50 Este 0 1017.5 -0.5 60
2018-09-11 14:00:00 28.9 37 Nordeste 50 Este 0 1018.3 0.7 57
2018-09-11 13:00:00 29 31 Este 42 Este 0 1018.2 0.7 56
2018-09-11 12:00:00 29.4 28 Nordeste 50 Nordeste 0 1018 -0.2 51
2018-09-11 11:00:00 27.1 27 Nordeste 42 Nordeste 0 1017.6 0.4 59
2018-09-11 10:00:00 25.4 13 Nordeste 24 Norte 0 1017.5 0 62
2018-09-11 09:00:00 24.5 10 Norte 21 Norte 0 1018.2 0.6 62
2018-09-11 08:00:00 22.7 10 Norte 17 Norte 0 1017.2 -0.4 67
2018-09-11 07:00:00 21.8 8 Norte 11 Norte 0 1017.5 0.2 71
2018-09-11 06:00:00 21.6 5 Oeste 13 Noroeste 0 1017.6 -0.1 73
2018-09-11 05:00:00 22 10 Noroeste 13 Noroeste 0 1017.6 -0.3 71
2018-09-11 04:00:00 22.9 10 Norte 18 Noroeste 0 1017.3 -0.7 68
2018-09-11 03:00:00 22.2 10 Norte 17 Nordeste 0 1017.7 -0.4 71
2018-09-11 02:00:00 22.2 9 Nordeste 13 Norte 0 1017.9 -0.2 72
2018-09-11 01:00:00 24.2 6 Norte 13 Nordeste 0 1018 0.2 64
2018-09-11 00:00:00 24.6 6 Norte 17 Nordeste 0 1018.1 1.1 62
2018-09-10 23:00:00 24.9 11 Norte 21 Nordeste 0 1018.1 1.5 61
2018-09-10 22:00:00 25.6 19 Nordeste 37 Nordeste 0 1017.8 1.4 67
2018-09-10 21:00:00 25.8 23 Nordeste 45 Este 0 1017 1 65
2018-09-10 20:00:00 26.3 32 Este 46 Este 0 1016.6 0.4 66
2018-09-10 19:00:00 27.3 35 Este 54 Este 0 1016.4 -0.1 58
2018-09-10 18:00:00 28 37 Este 58 Este 0 1016 -0.7 54
2018-09-10 17:00:00 27.8 39 Este 52 Este 0 1016.2 -0.8 62
2018-09-10 16:00:00 29.3 36 Este 48 Este 0 1016.5 -0.6 55
2018-09-10 15:00:00 29.3 34 Este 45 Este 0 1016.7 -0.5 54
2018-09-10 14:00:00 29 30 Este 39 Este 0 1017 -0.2 53
2018-09-10 13:00:00 29.4 14 Este 28 Este 0 1017.1 0.6 50
2018-09-10 12:00:00 29.4 9 Este 21 Nordeste 0 1017.2 1.7 47
2018-09-10 11:00:00 28.6 10 Nordeste 30 Norte 0 1017.2 2.1 48
2018-09-10 10:00:00 27.5 17 Nordeste 32 Nordeste 0 1016.5 1.4 52
2018-09-10 09:00:00 24.1 9 Norte 18 Norte 0 1015.5 0.5 65
2018-09-10 08:00:00 22.1 12 Noroeste 17 Noroeste 0 1015.1 0.2 75
2018-09-10 07:00:00 22.9 14 Noroeste 24 Noroeste 0 1015.1 -0.1 75
2018-09-10 06:00:00 21.7 9 Oeste 13 Sudoeste 0 1015 -0.1 80
2018-09-10 05:00:00 22.2 10 Sudoeste 13 Sudoeste 0 1014.9 -0.2 76
2018-09-10 04:00:00 22.7 10 Oeste 13 Sudoeste 0 1015.2 -0.1 74
2018-09-10 03:00:00 22.6 4 Sur 17 Noroeste 0 1015.1 -0.1 73
2018-09-10 02:00:00 23.1 9 Noroeste 24 Noroeste 0 1015.1 0.2 71
2018-09-10 01:00:00 23 11 Noroeste 18 Noroeste 0 1015.3 1 77
2018-09-10 00:00:00 23.6 13 Noroeste 21 Noroeste 0 1015.2 2.5 76
2018-09-09 23:00:00 24.1 11 Noroeste 17 Noroeste 0 1014.9 1.4 75
2018-09-09 22:00:00 24.7 11 Noroeste 28 Nordeste 0 1014.3 0.7 72
2018-09-09 21:00:00 25.5 19 Nordeste 28 Nordeste 0 1012.7 -1.1 70
2018-09-09 20:00:00 25.8 6 Este 32 Este 0 1013.5 1.6 69
2018-09-09 19:00:00 26 14 Nordeste 30 Norte 0 1013.6 -0.3 67
2018-09-09 18:00:00 26.4 17 Nordeste 48 Este 0 1013.8 -0.4 71
2018-09-09 17:00:00 25.3 42 Este 52 Este 0.2 1011.9 -2.6 83
2018-09-09 16:00:00 27 25 Este 33 Este 0 1013.9 -1.1 70
2018-09-09 15:00:00 27.9 19 Este 33 Este 0 1014.2 -0.9 65
2018-09-09 14:00:00 28.9 23 Este 35 Este 0 1014.5 -0.8 58
2018-09-09 13:00:00 28.4 23 Este 32 Este 0 1015 0.3 60
2018-09-09 12:00:00 28.7 14 Este 26 Este 0 1015.1 1.4 57
2018-09-09 11:00:00 26.9 9 Oeste 15 Oeste 0 1015.3 2.2 60
2018-09-09 10:00:00 25.6 11 Oeste 13 Oeste 0 1014.7 1.3 63
2018-09-09 09:00:00 23 10 Noroeste 21 Norte 0 1013.7 1 73
2018-09-09 08:00:00 21.9 10 Norte 18 Norte 0 1013.1 -0.1 80
2018-09-09 07:00:00 22.4 6 Sudoeste 18 Norte 0 1013.4 -1 77
2018-09-09 06:00:00 22.5 11 Norte 18 Norte 0 1012.7 -1.4 77
2018-09-09 05:00:00 22.8 14 Norte 21 Norte 0 1013.2 -0.2 78
2018-09-09 04:00:00 22.4 10 Noroeste 15 Noroeste 0 1014.4 0.7 82
2018-09-09 03:00:00 22.3 7 Oeste 17 Norte 0 1014.1 0.1 85
2018-09-09 02:00:00 22.9 12 Norte 18 Norte 0 1013.4 -1.4 83
2018-09-09 01:00:00 23.4 10 Norte 17 Norte 0 1013.7 -0.9 82
2018-09-09 00:00:00 23.6 12 Norte 21 Norte 0 1014 -0.5 83
2018-09-08 23:00:00 23.7 8 Noroeste 18 Nordeste 0 1014.8 1.4 85
2018-09-08 22:00:00 23.9 5 Norte 13 Nordeste 0 1014.6 1.6 83
2018-09-08 21:00:00 24.3 6 Noroeste 17 Nordeste 1.1 1014.5 1.3 83
2018-09-08 20:00:00 25.3 10 Nordeste 24 Este 0 1013.4 0.6 74
2018-09-08 19:00:00 26.2 18 Este 28 Este 0 1013 0.1 72
2018-09-08 18:00:00 25.5 13 Este 26 Este 0.1 1013.2 -0.2 76
2018-09-08 17:00:00 25.8 26 Este 35 Este 0 1012.8 -1.9 71
2018-09-08 16:00:00 27.2 19 Nordeste 32 Este 0 1012.9 -2.9 61
2018-09-08 15:00:00 25.4 16 Nordeste 32 Este 0 1013.4 -2.6 65
2018-09-08 14:00:00 24.5 8 Norte 26 Norte 0.6 1014.7 -1.1 75
2018-09-08 13:00:00 21.5 17 Noroeste 30 Noroeste 2.1 1015.8 1.5 84
2018-09-08 12:00:00 21.7 20 Noroeste 30 Noroeste 0.4 1016 3 78
2018-09-08 11:00:00 24.3 14 Noroeste 24 Noroeste 0 1015.8 3.2 61
2018-09-08 10:00:00 24.4 6 Norte 24 Norte 0 1014.3 2 59
2018-09-08 09:00:00 23.6 16 Norte 24 Norte 0 1013 1.3 63
2018-09-08 08:00:00 23.2 14 Norte 21 Norte 0 1012.6 0.6 66
2018-09-08 07:00:00 22.9 10 Norte 26 Nordeste 0 1012.3 -0.1 66
2018-09-08 06:00:00 22.7 13 Norte 18 Norte 0 1011.7 -0.7 64
2018-09-08 05:00:00 22.5 10 Norte 18 Norte 0 1012 -0.7 70
2018-09-08 04:00:00 21.6 10 Norte 15 Norte 0 1012.4 -0.8 78
2018-09-08 03:00:00 22 8 Norte 17 Norte 0 1012.4 -0.7 81
2018-09-08 02:00:00 23.3 10 Norte 21 Norte 0 1012.7 0.1 78
2018-09-08 01:00:00 23.7 8 Norte 13 Norte 0 1013.2 0.8 76
2018-09-08 00:00:00 23.8 7 Nordeste 13 Nordeste 0 1013.1 1.3 74
2018-09-07 23:00:00 24.3 8 Este 11 Este 0 1012.6 1.3 73
2018-09-07 22:00:00 24.4 5 Sudeste 17 Sudeste 0 1012.4 1.5 76
2018-09-07 21:00:00 25.1 10 Este 17 Este 0 1011.8 0.9 74
2018-09-07 20:00:00 25.8 11 Este 22 Sudeste 0 1011.3 0.5 71
2018-09-07 19:00:00 26.6 17 Sudeste 30 Este 0 1010.9 0.2 68
2018-09-07 18:00:00 27.4 20 Este 30 Norte 0 1010.9 0 64
2018-09-07 17:00:00 28.2 13 Sudeste 26 Este 0 1010.8 -1 58
2018-09-07 16:00:00 28.1 14 Este 24 Sudeste 0 1010.7 -2 56
2018-09-07 15:00:00 28.2 10 Este 24 Este 0 1010.9 -1.9 53
2018-09-07 14:00:00 27.5 14 Este 26 Nordeste 0 1011.8 0.1 53
2018-09-07 13:00:00 25.4 21 Nordeste 30 Este 0.6 1012.7 0.9 71
2018-09-07 12:00:00 21.6 17 Sur 37 Este 0.2 1012.8 1.8 83
2018-09-07 11:00:00 26 17 Nordeste 26 Norte 0 1011.7 0.7 69
2018-09-07 10:00:00 25.1 7 Norte 35 Este 0 1011.8 1.3 74
2018-09-07 09:00:00 25.4 26 Este 35 Este 0 1011 0.9 72
2018-09-07 08:00:00 24.7 19 Este 28 Este 0 1011 1.2 75
2018-09-07 07:00:00 24.7 8 Norte 13 Norte 0 1010.5 0.7 75
2018-09-07 06:00:00 24.4 10 Norte 17 Norte 0 1010.1 -0.1 78
2018-09-07 05:00:00 24.6 12 Norte 17 Norte 0 1009.8 -0.4 79
2018-09-07 04:00:00 24.7 10 Norte 13 Norte 0 1009.8 -1 79
2018-09-07 03:00:00 24.6 6 Norte 13 Norte 0 1010.2 -0.7 79
2018-09-07 02:00:00 25.1 8 Norte 13 Nordeste 0 1010.2 -0.7 77
2018-09-07 01:00:00 25 8 Este 13 Este 0 1010.8 0.6 76
2018-09-07 00:00:00 25.4 7 Este 13 Este 0 1010.9 1.8 75
2018-09-06 23:00:00 25.4 5 Este 8 Este 0 1010.9 2.4 75
2018-09-06 22:00:00 25.8 5 Este 9 Este 0 1010.2 2 75
2018-09-06 21:00:00 25.7 6 Sudeste 13 Sudeste 0 1009.1 0.8 75
2018-09-06 20:00:00 26.3 9 Este 18 Sudeste 0 1008.5 0.2 72
2018-09-06 19:00:00 27.1 14 Este 28 Este 0 1008.2 -0.3 69
2018-09-06 18:00:00 28 19 Este 33 Este 0 1008.3 -0.3 63
2018-09-06 17:00:00 29.2 21 Este 33 Este 0 1008.3 -0.4 56
2018-09-06 16:00:00 29.4 23 Este 33 Este 0 1008.5 -0.4 53
2018-09-06 15:00:00 30.4 19 Sudeste 32 Este 0 1008.6 -0.6 48
2018-09-06 14:00:00 31.4 23 Este 35 Sudeste 0 1008.7 -0.5 44
2018-09-06 13:00:00 29.9 13 Sudeste 24 Sudeste 0 1008.9 0 54
2018-09-06 12:00:00 29.5 8 Sudeste 17 Sur 0 1009.2 0.3 55
2018-09-06 11:00:00 29.4 8 Sudeste 13 Este 0 1009.2 -- 58
2018-09-06 10:00:00 27.2 6 Norte 17 Norte 0 1008.9 1.3 66
2018-09-06 09:00:00 25.7 5 Norte 26 Norte 0 1008.9 1.6 44
2018-09-06 08:00:00 24.6 9 Norte 22 Norte 0 -- -- 42
2018-09-06 07:00:00 24.7 12 Oeste 21 Oeste 0 1007.6 0.1 41
2018-09-06 06:00:00 23.4 13 Oeste 21 Oeste 0 1007.3 -0.7 49
2018-09-06 05:00:00 21.1 7 Oeste 11 Sudoeste 0 1007.3 -1.2 69
2018-09-06 04:00:00 21.7 4 Oeste 9 Noroeste 0 1007.5 -1.1 69
2018-09-06 03:00:00 22.4 5 Oeste 9 Norte 0 1008 -0.7 65
2018-09-06 02:00:00 23.8 5 Norte 11 Oeste 0 1008.5 -0.1 66
2018-09-06 01:00:00 23.7 3 Sur 8 Oeste 0 1008.6 0.6 59
2018-09-06 00:00:00 25.5 5 Sudoeste 8 Oeste 0 1008.7 1.3 50
2018-09-05 23:00:00 25.6 0 Calma 4 Sudoeste 0 1008.6 1.4 49
2018-09-05 22:00:00 27.1 2 Oeste 8 Norte 0 1008 0.5 44
2018-09-05 21:00:00 27.7 4 Sur 15 Sur 0 1007.4 -0.4 54
2018-09-05 20:00:00 28.7 9 Sur 18 Sudeste 0 1007.2 -1 59
2018-09-05 19:00:00 29.7 10 Sur 21 Sudoeste 0 1007.5 -1.2 54
2018-09-05 18:00:00 29.7 8 Sur 28 Este 0 1007.8 -1.5 56
2018-09-05 17:00:00 30.1 16 Este 28 Este 0 1008.2 -1.6 53
2018-09-05 16:00:00 30.8 18 Este 24 Este 0 1008.7 -1.7 48
2018-09-05 15:00:00 30.5 13 Sudeste 28 Este 0 1009.3 -1.3 48
2018-09-05 14:00:00 29.5 15 Sudeste 26 Sudeste 0 1009.8 -0.9 56
2018-09-05 13:00:00 28.9 12 Este 26 Este 0 1010.4 -0.2 60
2018-09-05 12:00:00 28.3 12 Este 24 Este 0 1010.6 0.5 66
2018-09-05 11:00:00 27.2 12 Este 21 Este 0 1010.7 0.9 70
2018-09-05 10:00:00 26.6 6 Norte 18 Norte 0 1010.6 1.2 75
2018-09-05 09:00:00 25.9 12 Norte 21 Norte 0 1010.1 1.1 74
2018-09-05 08:00:00 23.9 0 Calma 9 Noroeste 0 1009.8 1 84
2018-09-05 07:00:00 23.3 0 Calma -- -- 0 1009.4 0.8 89
2018-09-05 06:00:00 23.6 0 Calma 5 Sudoeste 0 1009 0.1 88
2018-09-05 05:00:00 24.3 0 Calma 9 Norte 0 1008.8 -0.6 86
2018-09-05 04:00:00 24.3 0 Calma 4 Noroeste 0 1008.6 -1 87
2018-09-05 03:00:00 25.1 0 Calma 11 Nordeste 0 1008.9 -0.7 84
2018-09-05 02:00:00 25.2 6 Norte 9 Norte 0 1009.4 0.1 84
2018-09-05 01:00:00 25.4 4 Norte 8 Nordeste 0 1009.6 0.9 83
2018-09-05 00:00:00 25.9 4 Sudeste 13 Nordeste 0 1009.6 1.6 82
2018-09-04 23:00:00 26.1 5 Este 13 Este 0 1009.3 1.7 82
2018-09-04 22:00:00 26.4 11 Este 21 Este 0 1008.7 1.4 81
2018-09-04 21:00:00 26.6 13 Este 21 Este 0 1008 0.7 80
2018-09-04 20:00:00 27.1 14 Este 24 Este 0 1007.6 0.4 79
2018-09-04 19:00:00 27.5 16 Este 26 Este 0 1007.3 -0.1 78
2018-09-04 18:00:00 28.6 16 Este 26 Este 0 1007.3 -0.4 66
2018-09-04 17:00:00 30.5 17 Este 26 Este 0 1007.2 -0.9 57
2018-09-04 16:00:00 31.2 15 Este 28 Sudeste 0 1007.4 -1.2 55
2018-09-04 15:00:00 30.6 14 Este 24 Sudeste 0 1007.7 -1.2 59
2018-09-04 14:00:00 30.3 14 Este 24 Sudeste 0 1008.1 -1 60
2018-09-04 13:00:00 28.6 14 Este 28 Este 0 1008.6 -0.3 65
2018-09-04 12:00:00 29.7 12 Este 22 Norte 0 1008.9 0.4 60
2018-09-04 11:00:00 28.4 9 Este 17 Este 0 1009.1 0.9 64
2018-09-04 10:00:00 27.2 8 Nordeste 17 Nordeste 0 1008.9 1.1 68
2018-09-04 09:00:00 25.4 8 Norte 17 Norte 0 1008.5 0.8 70
2018-09-04 08:00:00 23.2 8 Noroeste 11 Norte 0 1008.2 0.4 81
2018-09-04 07:00:00 24 7 Norte 15 Norte 0 1007.8 -0.1 78
2018-09-04 06:00:00 25 11 Norte 15 Norte 0 1007.7 -0.9 73
2018-09-04 05:00:00 24.9 8 Norte 13 Norte 0 1007.8 -1.4 72
2018-09-04 04:00:00 24.2 9 Norte 15 Norte 0 1007.9 -1.2 79
2018-09-04 03:00:00 25.4 7 Norte 13 Norte 0 1008.6 0 81
2018-09-04 02:00:00 25.4 8 Nordeste 22 Este 0 1009.2 0.7 83
2018-09-04 01:00:00 25.7 16 Este 30 Este 0 1009.1 0.7 81
2018-09-04 00:00:00 26.5 25 Este 35 Este 0 1008.6 -0.4 74
2018-09-03 23:00:00 26.9 23 Este 35 Este 0 1008.5 0.1 62
2018-09-03 22:00:00 26.5 26 Este 41 Este 0 1008.4 0.2 78
2018-09-03 21:00:00 26.8 15 Nordeste 24 Nordeste 0 1009 0.8 73
2018-09-03 20:00:00 26.9 13 Nordeste 18 Este 0 1008.4 0 77
2018-09-03 19:00:00 27.4 12 Nordeste 21 Este 0 1008.2 0.1 75
2018-09-03 18:00:00 27.7 13 Este 26 Sudeste 0 1008.2 -0.8 73
2018-09-03 17:00:00 28.4 18 Este 30 Este 0 1008.4 -0.8 68
2018-09-03 16:00:00 29.5 24 Este 37 Este 0 1008.1 -1.6 66
2018-09-03 15:00:00 28.8 15 Este 32 Este 0 1009 -1.1 69
2018-09-03 14:00:00 28.1 20 Este 33 Este 0 1009.2 -0.6 72
2018-09-03 13:00:00 28.8 20 Este 28 Este 0 1009.7 0.5 68
2018-09-03 12:00:00 28 16 Este 26 Este 0 1010.1 1.3 72
2018-09-03 11:00:00 27.7 12 Este 24 Este 0.1 1009.8 0.8 75
2018-09-03 10:00:00 27.4 11 Nordeste 21 Este 0 1009.2 0.9 74
2018-09-03 09:00:00 26.2 11 Nordeste 17 Nordeste 0 1008.8 0.8 76
2018-09-03 08:00:00 24.3 4 Noroeste 17 Nordeste 0 1009 1 83
2018-09-03 07:00:00 24.4 9 Norte 13 Norte 0 1008.3 -1.6 83
2018-09-03 06:00:00 23.9 10 Oeste 22 Este 0 1008 -2.1 87
2018-09-03 05:00:00 25.1 17 Este 26 Este 0 1008 -2.3 81
2018-09-03 04:00:00 25 6 Noroeste 17 Oeste 0 1009.9 -0.6 81
2018-09-03 03:00:00 24.9 7 Noroeste 9 Noroeste 0 1010.1 -0.3 84
2018-09-03 02:00:00 25.1 3 Noroeste 8 Noroeste 0 1010.3 -0.2 83
2018-09-03 01:00:00 25.5 0 Calma 5 Oeste 0 1010.5 0 83
2018-09-03 00:00:00 25.6 0 Calma 2 Sudeste 0 1010.4 0.2 82
2018-09-02 23:00:00 25.6 0 Calma 4 Sudoeste 0 1010.5 0.4 82
2018-09-02 22:00:00 25.7 3 Sur 9 Sudeste 0 1010.5 0.2 81
2018-09-02 21:00:00 26.4 7 Sudeste 13 Sudeste 0 1010.2 0 77
2018-09-02 20:00:00 27.1 10 Sudeste 17 Este 0 1010.1 -0.4 73
2018-09-02 19:00:00 27.9 13 Sudeste 28 Sudeste 0 1010.3 -0.9 67
2018-09-02 18:00:00 30.2 16 Sudeste 26 Este 0 1010.2 -1.9 48
2018-09-02 17:00:00 31.4 11 Sur 26 Sudoeste 0 1010.5 -2.3 51
2018-09-02 16:00:00 31 9 Sur 22 Este 0 1011.2 -2.3 51
2018-09-02 15:00:00 29.3 12 Este 24 Sudeste 0 1012.1 -2 59
2018-09-02 14:00:00 29.5 12 Este 26 Sudeste 0 1012.8 -1.4 59
2018-09-02 13:00:00 29.4 12 Este 26 Sudeste 0 1013.5 -0.4 58
2018-09-02 12:00:00 28.3 12 Este 24 Este 0 1014.1 0.7 61
2018-09-02 11:00:00 27.7 10 Este 17 Este 0 1014.2 1.1 62
2018-09-02 10:00:00 26.9 5 Este 15 Norte 0 1013.9 0.8 67
2018-09-02 09:00:00 24.7 4 Norte 17 Norte 0 1013.4 0.2 66
2018-09-02 08:00:00 22.7 10 Noroeste 17 Norte 0 1013.1 -0.4 73
2018-09-02 07:00:00 22.3 9 Noroeste 18 Oeste 0 1013.1 -0.7 71
2018-09-02 06:00:00 23.3 5 Norte 11 Norte 0 1013.2 -0.8 71
2018-09-02 05:00:00 23.6 8 Norte 9 Noroeste 0 1013.5 -0.8 72
2018-09-02 04:00:00 23.7 6 Norte -- -- 0 1013.8 -0.4 75
2018-09-02 03:00:00 23.7 8 Norte 15 Norte 0 1014 -0.3 78
2018-09-02 02:00:00 24.7 9 Norte 17 Norte 0 1014.3 0.1 75
2018-09-02 01:00:00 25 10 Norte 15 Norte 0 1014.2 0.3 75
2018-09-02 00:00:00 25.2 9 Nordeste 17 Este 0 1014.3 1 76
2018-09-01 23:00:00 25.5 12 Nordeste 18 Este 0 1014.2 1.2 75
2018-09-01 22:00:00 25.7 13 Este 18 Este 0 1013.9 0.7 74
2018-09-01 21:00:00 26 11 Este 18 Norte 0 1013.3 0.1 72
2018-09-01 20:00:00 26.9 13 Este 21 Este 0 1013 -0.7 66
2018-09-01 19:00:00 27.8 12 Este 24 Este 0 1013.2 -0.9 57
2018-09-01 18:00:00 28.5 14 Este 28 Norte 0 1013.2 -1.4 56
2018-09-01 17:00:00 29.3 16 Nordeste 32 Sudeste 0 1013.7 -1.2 53
2018-09-01 16:00:00 29.7 15 Este 30 Este 0 1014.1 -1.4 51
2018-09-01 15:00:00 29.6 15 Este 28 Sudeste 0 1014.6 -1.1 49
2018-09-01 14:00:00 29.2 16 Este 28 Norte 0 1014.9 -0.6 53
2018-09-01 13:00:00 29.1 17 Este 30 Este 0 1015.5 0.3 56
2018-09-01 12:00:00 28.3 19 Este 30 Este 0 1015.7 0.9 62
2018-09-01 11:00:00 28.4 12 Nordeste 24 Nordeste 0 1015.5 1.1 60
2018-09-01 10:00:00 27.3 14 Nordeste 22 Nordeste 0 1015.2 1.3 65
2018-09-01 09:00:00 25.7 13 Norte 21 Norte 0 1014.8 1 70
2018-09-01 08:00:00 24.2 11 Norte 18 Norte 0 1014.4 0.6 78
2018-09-01 07:00:00 24 12 Norte 30 Norte 0 1013.9 -0.1 76
2018-09-01 06:00:00 24 10 Norte 15 Norte 0 1013.8 -0.4 76
2018-09-01 05:00:00 24.5 9 Norte 15 Norte 0 1013.8 -0.6 75
2018-09-01 04:00:00 24.6 10 Norte 15 Norte 0 1014 -0.6 76
2018-09-01 03:00:00 24.7 10 Norte 15 Norte 0 1014.2 -0.4 77
2018-09-01 02:00:00 25 9 Norte 18 Este 0 1014.4 0 78
2018-09-01 01:00:00 25.5 13 Nordeste 22 Nordeste 0 1014.6 0.6 75
2018-09-01 00:00:00 25.8 14 Este 24 Norte 0 1014.6 1.3 75
2018-08-31 23:00:00 26 14 Este 24 Este 0 1014.4 1.5 74
2018-08-31 22:00:00 25.8 14 Este 22 Este 0 1014 1.1 76
2018-08-31 21:00:00 26.2 15 Este 21 Este 0 1013.3 0.3 74
2018-08-31 20:00:00 27.1 12 Este 26 Este 0 1012.9 0 69
2018-08-31 19:00:00 28 15 Este 30 Este 0 1012.9 -0.7 64
2018-08-31 18:00:00 27.8 18 Este 30 Norte 0 1013 -0.9 66
2018-08-31 17:00:00 29.3 18 Este 35 Norte 0 1012.9 -1.4 62
2018-08-31 16:00:00 29 17 Este 32 Este 0 1013.6 -1.2 63
2018-08-31 15:00:00 29.7 17 Este 26 Este 0 1013.9 -0.8 58
2018-08-31 14:00:00 29.3 18 Este 32 Este 0 1014.3 -0.3 61
2018-08-31 13:00:00 29.1 17 Este 28 Este 0 1014.8 0.5 61
2018-08-31 12:00:00 29 17 Este 26 Este 0 1014.7 0.8 58
2018-08-31 11:00:00 28 12 Este 22 Este 0 1014.6 0.7 61
2018-08-31 10:00:00 27.8 11 Nordeste 21 Norte 0 1014.3 0.8 63
2018-08-31 09:00:00 25.6 12 Norte 21 Norte 0 1013.9 0.6 71
2018-08-31 08:00:00 22.7 6 Norte 13 Norte 0 1013.9 0.4 81
2018-08-31 07:00:00 23.2 8 Norte 13 Noroeste 0 1013.5 -0.2 83
2018-08-31 06:00:00 22.7 10 Noroeste 13 Noroeste 0 1013.3 -0.7 84
2018-08-31 05:00:00 23.1 4 Noroeste 9 Norte 0 1013.5 -1.1 84
2018-08-31 04:00:00 24.2 8 Norte 15 Norte 0 1013.7 -1.2 80
2018-08-31 03:00:00 24.9 10 Norte 13 Norte 0 1014 -1.1 81
2018-08-31 02:00:00 25.1 9 Nordeste 17 Este 0 1014.6 -0.2 80
2018-08-31 01:00:00 25.5 12 Este 21 Norte 0 1014.9 0.4 78
2018-08-31 00:00:00 26.1 13 Este 22 Este 0 1015.1 1.1 77
2018-08-30 23:00:00 26 13 Este 21 Este 0 1014.8 1.3 80
2018-08-30 22:00:00 26.2 13 Este 22 Este 0 1014.5 0.8 78
2018-08-30 21:00:00 26.5 14 Este 22 Este 0 1014 0 75
2018-08-30 20:00:00 27 14 Este 22 Este 0 1013.5 -0.7 75
2018-08-30 19:00:00 27.8 12 Este 24 Este 0 1013.7 -0.9 69
2018-08-30 18:00:00 27.6 16 Este 28 Sudeste 0 1014 -1.1 74
2018-08-30 17:00:00 29.3 14 Este 30 Este 0 1014.2 -1 63
2018-08-30 16:00:00 29.4 20 Este 32 Este 0 1014.6 -0.9 62
2018-08-30 15:00:00 29 16 Este 32 Este 0 1015.1 -0.4 62
2018-08-30 14:00:00 30 20 Este 32 Este 0 1015.2 -0.3 59
2018-08-30 13:00:00 30.6 19 Este 32 Este 0 1015.5 0.6 54
2018-08-30 12:00:00 30 18 Nordeste 28 Este 0 1015.5 0.9 55
2018-08-30 11:00:00 29.5 13 Nordeste 26 Nordeste 0 1015.5 1 58
2018-08-30 10:00:00 28.6 13 Nordeste 24 Nordeste 0 1014.9 1.3 59
2018-08-30 09:00:00 26.1 10 Norte 21 Norte 0 1014.6 1.2 65
2018-08-30 08:00:00 23.3 7 Noroeste 11 Noroeste 0 1014.5 0.9 78
2018-08-30 07:00:00 24 3 Noroeste 15 Norte 0 1013.6 -0.1 75
2018-08-30 06:00:00 24.7 9 Norte 24 Nordeste 0 1013.4 -0.4 76
2018-08-30 05:00:00 25.1 12 Nordeste 21 Nordeste 0 1013.6 -0.8 77
2018-08-30 04:00:00 25.9 10 Nordeste 22 Este 0 1013.7 -0.5 76
2018-08-30 03:00:00 26.1 16 Este 22 Este 0 1013.8 0.3 77
2018-08-30 02:00:00 26.2 9 Nordeste 18 Nordeste 0 1014.4 0.5 76
2018-08-30 01:00:00 26.1 10 Nordeste 21 Este 0 1014.2 0.6 77
2018-08-30 00:00:00 26 13 Este 22 Este 0 1013.5 0.6 77
2018-08-29 23:00:00 26.2 13 Este 21 Este 0 1013.9 1.8 78
2018-08-29 22:00:00 26.2 11 Nordeste 22 Este 0 1013.6 2.3 77
2018-08-29 21:00:00 26.6 13 Este 21 Este 0 1012.9 1.9 73
2018-08-29 20:00:00 27.1 15 Este 26 Este 0 1012.1 1 74
2018-08-29 19:00:00 28.3 17 Este 26 Este 0 1011.3 -0.1 69
2018-08-29 18:00:00 29.3 17 Este 30 Este 0 1011 -1 62
2018-08-29 17:00:00 30.6 15 Este 24 Este 0 1011.1 -1.3 55
2018-08-29 16:00:00 31 14 Este 24 Norte 0 1011.4 -1.7 52
2018-08-29 15:00:00 30.4 13 Este 24 Norte 0 1012 -1.5 54
2018-08-29 14:00:00 30.2 10 Este 24 Este 0 1012.4 -0.8 56
2018-08-29 13:00:00 29.8 15 Este 26 Sudeste 0 1013.1 0.5 61
2018-08-29 12:00:00 29.4 12 Sudeste 22 Sudeste 0 1013.5 1.3 59
2018-08-29 11:00:00 28.6 11 Este 17 Este 0 1013.2 1.2 64
2018-08-29 10:00:00 28.2 7 Nordeste 15 Norte 0 1012.6 1.1 63
2018-08-29 09:00:00 25.6 6 Norte 13 Norte 0 1012.2 1 50
2018-08-29 08:00:00 21.5 8 Oeste 13 Noroeste 0 1012 0.9 60
2018-08-29 07:00:00 21.7 8 Noroeste 11 Oeste 0 1011.5 0 62
2018-08-29 06:00:00 21.9 8 Norte 13 Norte 0 1011.2 -0.7 68
2018-08-29 05:00:00 23.6 3 Nordeste 8 Noroeste 0 1011.1 -0.9 60
2018-08-29 04:00:00 22.2 4 Noroeste 11 Oeste 0 1011.5 -0.5 76
2018-08-29 03:00:00 22.6 8 Oeste 11 Noroeste 0 1011.9 0 80
2018-08-29 02:00:00 23.1 8 Noroeste 11 Noroeste 0 1012 0.1 81
2018-08-29 01:00:00 23.7 9 Noroeste 13 Noroeste 0 1012 -0.4 82
2018-08-29 00:00:00 25.1 5 Norte 13 Este 0 1011.9 -0.1 78
2018-08-28 23:00:00 25.2 8 Nordeste 13 Nordeste 0 1011.9 0 79
2018-08-28 22:00:00 25.9 4 Nordeste 13 Este 0 1012.4 0.8 77
2018-08-28 21:00:00 26.4 9 Este 17 Este 0 1012 0 75
2018-08-28 20:00:00 27.2 11 Este 22 Este 0 1011.9 -0.6 70
2018-08-28 19:00:00 28.8 13 Este 22 Norte 0 1011.6 -1.4 57
2018-08-28 18:00:00 29.7 16 Este 24 Sudeste 0 1012 -1.7 49
2018-08-28 17:00:00 30.3 16 Este 26 Este 0 1012.5 -1.3 49
2018-08-28 16:00:00 29.8 17 Este 30 Este 0 1013 -1 56
2018-08-28 15:00:00 29.7 15 Este 28 Este 0 1013.7 -0.4 54
2018-08-28 14:00:00 29.1 18 Este 28 Sudeste 0 1013.8 0.1 55
2018-08-28 13:00:00 28.1 12 Este 26 Este 0 1014 0.9 66
2018-08-28 12:00:00 27.9 12 Este 22 Este 0 1014.1 0.8 67
2018-08-28 11:00:00 28.5 8 Nordeste 18 Nordeste -- 1013.7 0.9 59
2018-08-28 10:00:00 27.4 12 Nordeste 21 Norte -- 1013.1 0.2 66
2018-08-28 09:00:00 26 10 Norte 17 Norte 0 1013.3 0.5 74
2018-08-28 08:00:00 23.9 4 Norte 13 Noroeste 0 1012.8 0.5 83
2018-08-28 07:00:00 23.4 5 Oeste 11 Nordeste 0 1012.9 -0.2 84
2018-08-28 06:00:00 23.2 7 Oeste 9 Oeste 0 1012.8 -0.9 86
2018-08-28 05:00:00 23.5 7 Norte -- -- 0 1012.3 -1.6 84
2018-08-28 04:00:00 23.7 4 Oeste 8 Oeste 0 1013.1 -0.9 82
2018-08-28 03:00:00 24.2 5 Sudoeste 11 Nordeste 0 1013.7 -0.6 81
2018-08-28 02:00:00 25.2 6 Nordeste 11 Norte 0 1013.9 -0.1 78
2018-08-28 01:00:00 25.9 6 Sudeste 17 Este 0 1014 1.3 74
2018-08-28 00:00:00 26.5 5 Este 13 Nordeste 0 1014.3 2.2 73
2018-08-27 23:00:00 26.5 8 Este 18 Este 0 1014 2.1 73
2018-08-27 22:00:00 26.2 12 Este 22 Norte 0 1012.7 0.6 76
2018-08-27 21:00:00 26.3 14 Este 22 Norte 0 1012.1 0 76
2018-08-27 20:00:00 27.2 14 Este 22 Este 0 1011.9 -0.4 72
2018-08-27 19:00:00 28.2 12 Este 24 Este 0 1012.1 -0.7 67
2018-08-27 18:00:00 28.9 14 Este 28 Este 0 1012.1 -0.8 62
2018-08-27 17:00:00 29.1 18 Este 30 Este 0 1012.3 -0.7 60
2018-08-27 16:00:00 29.7 18 Este 37 Este 0 1012.8 -0.5 60
2018-08-27 15:00:00 29.4 18 Este 30 Este 0 1012.9 -0.4 55
2018-08-27 14:00:00 30 18 Este 28 Este 0 1013 0.1 56
2018-08-27 13:00:00 30 16 Este 28 Este 0 1013.3 0.8 54
2018-08-27 12:00:00 30 11 Este 21 Este 0 1013.3 1.1 46
2018-08-27 11:00:00 29 9 Este 17 Este 0 1012.9 1.2 61
2018-08-27 10:00:00 27.7 6 Nordeste 15 Nordeste 0 1012.5 1.2 69
2018-08-27 09:00:00 25.8 4 Oeste 9 Norte 0 1012.2 1.2 79
2018-08-27 08:00:00 23.5 5 Noroeste 8 Noroeste 0 1011.7 0.5 86
2018-08-27 07:00:00 23.3 4 Oeste 5 Oeste 0 1011.3 0.2 85
2018-08-27 06:00:00 24 -- -- -- -- 0 1011 -0.5 85
2018-08-27 05:00:00 24.2 6 Oeste -- -- 0 1011.2 -0.4 83
2018-08-27 04:00:00 24.8 4 Sur -- -- 0 1011.1 -0.4 81
2018-08-27 03:00:00 26.1 3 Sur 9 Sur 0 1011.5 0 75
2018-08-27 02:00:00 26.5 3 Sur 9 Sudoeste 0 1011.6 0.3 72
2018-08-27 01:00:00 26.5 5 Sur 9 Sur 0 1011.5 0.5 73
2018-08-27 00:00:00 26.4 6 Sur 11 Sudeste 0 1011.5 0.9 73
2018-08-26 23:00:00 26.4 7 Sudeste 13 Sudeste 0 1011.3 0.9 73
2018-08-26 22:00:00 26.8 10 Sudeste 15 Sudeste 0 1011 0.7 74
2018-08-26 21:00:00 26.9 8 Sudeste 17 Este 0 1010.6 0.4 73
2018-08-26 20:00:00 27.4 12 Sudeste 21 Este 0 1010.4 0 71
2018-08-26 19:00:00 27.9 13 Este 26 Este 0 1010.3 -0.6 68
2018-08-26 18:00:00 28.8 16 Este 28 Este 0 1010.2 -1.2 64
2018-08-26 17:00:00 29.6 16 Este 28 Este 0 1010.4 -1.3 59
2018-08-26 16:00:00 29.9 18 Este 33 Norte 0 1010.9 -1.2 58
2018-08-26 15:00:00 29.9 21 Este 33 Este 0 1011.4 -1.1 56
2018-08-26 14:00:00 29.9 19 Este 32 Nordeste 0 1011.7 -0.6 57
2018-08-26 13:00:00 30 19 Este 30 Este 0 1012.1 0.2 53
2018-08-26 12:00:00 29.8 21 Nordeste 32 Nordeste 0 1012.5 1 50
2018-08-26 11:00:00 29.7 15 Nordeste 26 Este 0 1012.3 1.1 47
2018-08-26 10:00:00 28.6 9 Nordeste 22 Norte 0 1011.9 1.1 51
2018-08-26 09:00:00 26.7 10 Norte 18 Norte 0 1011.5 1 62
2018-08-26 08:00:00 24.7 10 Norte 17 Norte 0 1011.2 0.9 75
2018-08-26 07:00:00 24.9 9 Norte 13 Norte 0 1010.8 0.5 76
2018-08-26 06:00:00 25 9 Norte 17 Norte 0 1010.5 0.2 75
2018-08-26 05:00:00 25.2 11 Norte 32 Nordeste 0 1010.3 -0.2 74
2018-08-26 04:00:00 26 14 Nordeste 28 Este 0 1010.3 0.1 72
2018-08-26 03:00:00 26 18 Nordeste 30 Nordeste 0 1010.3 0.2 78
2018-08-26 02:00:00 26.5 18 Nordeste 30 Este 0 1010.5 0.7 69
2018-08-26 01:00:00 26.4 19 Este 24 Este 0 1010.2 1.2 66
2018-08-26 00:00:00 26.4 17 Este 24 Este 0 1010.1 1.6 61
2018-08-25 23:00:00 26.5 10 Nordeste 18 Este 0 1009.8 1.5 58
2018-08-25 22:00:00 26.7 9 Nordeste 13 Nordeste 0 1009 0.5 59
2018-08-25 21:00:00 27.2 8 Este 18 Este 0 1008.5 -0.1 60
2018-08-25 20:00:00 27.7 10 Este 22 Este 0 1008.3 -0.6 61
2018-08-25 19:00:00 28.6 11 Este 18 Este 0 1008.5 -0.7 60
2018-08-25 18:00:00 29.4 12 Este 21 Sudeste 0 1008.6 -1.2 58
2018-08-25 17:00:00 29.7 14 Este 28 Este 0 1008.9 -1.4 57
2018-08-25 16:00:00 29.9 17 Este 28 Este 0 1009.2 -1.7 57
2018-08-25 15:00:00 30.2 17 Este 26 Este 0 1009.8 -1.5 55
2018-08-25 14:00:00 30.1 13 Este 24 Norte 0 1010.3 -1.1 56
2018-08-25 13:00:00 29.6 14 Este 24 Este 0 1010.9 -0.1 58
2018-08-25 12:00:00 29.1 15 Este 30 Norte 0 1011.3 0.4 60
2018-08-25 11:00:00 28.2 13 Este 24 Este 0 1011.4 0.7 67
2018-08-25 10:00:00 27.6 12 Nordeste 21 Este 0 1011 0.6 71
2018-08-25 09:00:00 25.8 12 Norte 21 Nordeste 0 1010.9 0.8 78
2018-08-25 08:00:00 24.7 13 Norte 21 Nordeste 0 1010.7 0.5 80
2018-08-25 07:00:00 24.7 12 Norte 18 Nordeste 0 1010.4 0.1 82
2018-08-25 06:00:00 24.5 12 Norte 17 Norte 0 1010.1 -0.4 81
2018-08-25 05:00:00 24.6 12 Norte 17 Norte 0 1010.2 -0.7 79
2018-08-25 04:00:00 24.9 13 Norte 18 Norte 0 1010.3 -0.6 79
2018-08-25 03:00:00 24.6 12 Norte 15 Norte 0 1010.5 -0.5 77
2018-08-25 02:00:00 25.2 6 Nordeste 11 Nordeste 0 1010.9 -0.2 84
2018-08-25 01:00:00 25.6 4 Norte 13 Nordeste 0 1010.9 -0.1 83
2018-08-25 00:00:00 25.7 7 Nordeste 13 Nordeste 0 1011 0.7 83